createdAt,value
2023-03-24T00:01:26.010Z,4.68
2023-03-24T00:03:54.685Z,5.05
2023-03-24T00:06:23.461Z,5.95
2023-03-24T00:08:53.430Z,4.63
2023-03-24T00:11:22.076Z,4.90
2023-03-24T00:13:51.058Z,4.70
2023-03-24T00:16:21.762Z,5.15
2023-03-24T00:18:53.266Z,5.57
2023-03-24T00:21:24.598Z,5.32
2023-03-24T00:23:54.441Z,5.35
2023-03-24T00:26:25.210Z,5.10
2023-03-24T00:28:54.880Z,5.10
2023-03-24T00:31:28.134Z,5.00
2023-03-24T00:34:02.220Z,4.50
2023-03-24T00:36:30.528Z,4.88
2023-03-24T00:38:59.070Z,4.65
2023-03-24T00:41:28.918Z,4.97
2023-03-24T00:43:58.811Z,4.65
2023-03-24T00:46:29.392Z,4.60
2023-03-24T00:49:03.456Z,4.72
2023-03-24T00:51:36.032Z,4.53
2023-03-24T00:54:05.147Z,4.30
2023-03-24T00:56:35.717Z,4.40
2023-03-24T00:59:04.993Z,3.53
2023-03-24T01:01:36.643Z,4.05
2023-03-24T01:04:06.500Z,4.07
2023-03-24T01:06:39.981Z,3.63
2023-03-24T01:09:08.903Z,4.10
2023-03-24T01:11:40.187Z,3.80
2023-03-24T01:14:09.553Z,3.97
2023-03-24T01:16:39.668Z,4.25
2023-03-24T01:19:09.561Z,4.43
2023-03-24T01:21:38.800Z,4.65
2023-03-24T01:24:07.693Z,3.53
2023-03-24T01:26:36.276Z,3.47
2023-03-24T01:29:04.593Z,4.28
2023-03-24T01:31:33.172Z,4.10
2023-03-24T01:34:03.017Z,3.80
2023-03-24T01:36:31.466Z,4.18
2023-03-24T01:39:01.309Z,4.35
2023-03-24T01:41:37.186Z,3.65
2023-03-24T01:44:27.243Z,4.10
2023-03-24T01:46:55.822Z,4.35
2023-03-24T01:49:27.106Z,4.07
2023-03-24T01:51:58.453Z,3.70
2023-03-24T01:54:31.305Z,3.85
2023-03-24T01:57:07.854Z,3.83
2023-03-24T01:59:42.260Z,3.60
2023-03-24T02:02:14.606Z,3.50
2023-03-24T02:04:54.179Z,3.83
2023-03-24T02:07:33.045Z,3.90
2023-03-24T02:10:03.684Z,3.55
2023-03-24T02:12:32.850Z,3.45
2023-03-24T02:15:04.392Z,3.92
2023-03-24T02:17:49.859Z,3.45
2023-03-24T02:21:00.119Z,4.00
2023-03-24T02:23:55.744Z,4.10
2023-03-24T02:26:47.213Z,3.83
2023-03-24T02:30:06.675Z,3.90
2023-03-24T02:33:06.711Z,3.88
2023-03-24T02:36:15.349Z,3.45
2023-03-24T02:39:09.832Z,3.90
2023-03-24T02:41:45.531Z,3.30
2023-03-24T02:44:21.722Z,3.28
2023-03-24T02:46:55.994Z,3.65
2023-03-24T02:49:30.132Z,3.42
2023-03-24T02:52:05.447Z,3.75
2023-03-24T02:54:43.088Z,3.67
2023-03-24T02:57:21.466Z,3.70
2023-03-24T03:00:13.787Z,3.70
2023-03-24T03:03:10.161Z,3.63
2023-03-24T03:05:45.572Z,4.05
2023-03-24T03:08:18.265Z,3.80
2023-03-24T03:10:48.861Z,4.22
2023-03-24T03:13:23.637Z,3.97
2023-03-24T03:15:55.329Z,3.72
2023-03-24T03:18:30.922Z,3.50
2023-03-24T03:21:04.418Z,4.00
2023-03-24T03:23:39.042Z,3.75
2023-03-24T03:26:12.370Z,3.73
2023-03-24T03:28:50.133Z,4.35
2023-03-24T03:31:24.849Z,4.03
2023-03-24T03:34:00.369Z,4.00
2023-03-24T03:36:31.698Z,4.28
2023-03-24T03:39:09.671Z,4.07
2023-03-24T03:41:42.012Z,4.43
2023-03-24T03:44:11.786Z,3.80
2023-03-24T03:46:40.937Z,4.60
2023-03-24T03:49:12.204Z,4.47
2023-03-24T03:51:43.256Z,4.70
2023-03-24T03:54:14.882Z,4.60
2023-03-24T03:56:43.845Z,4.32
2023-03-24T03:59:37.918Z,4.10
2023-03-24T04:02:26.981Z,4.32
2023-03-24T04:05:21.116Z,4.28
2023-03-24T04:08:16.822Z,4.85
2023-03-24T04:11:53.424Z,4.00
2023-03-24T04:15:01.162Z,4.55
2023-03-24T04:18:07.238Z,4.65
2023-03-24T04:21:02.256Z,4.97
2023-03-24T04:23:40.150Z,5.18
2023-03-24T04:26:26.273Z,5.53
2023-03-24T04:29:09.010Z,5.45
2023-03-24T04:31:43.409Z,5.63
2023-03-24T04:34:20.637Z,6.47
2023-03-24T04:36:54.535Z,6.32
2023-03-24T04:39:30.588Z,6.15
2023-03-24T04:42:05.284Z,6.07
2023-03-24T04:44:34.305Z,5.97
2023-03-24T04:47:32.026Z,7.28
2023-03-24T04:50:31.389Z,6.78
2023-03-24T04:53:01.966Z,6.70
2023-03-24T04:56:14.307Z,6.28
2023-03-24T04:59:13.026Z,6.72
2023-03-24T05:01:41.601Z,7.20
2023-03-24T05:04:43.220Z,7.25
2023-03-24T05:07:33.731Z,7.50
2023-03-24T05:10:07.957Z,6.70
2023-03-24T05:12:42.244Z,7.15
2023-03-24T05:15:19.595Z,7.13
2023-03-24T05:17:52.584Z,7.50
2023-03-24T05:20:26.201Z,7.15
2023-03-24T05:22:56.954Z,7.00
2023-03-24T05:25:26.713Z,8.15
2023-03-24T05:27:54.827Z,7.40
2023-03-24T05:30:26.744Z,7.38
2023-03-24T05:33:02.150Z,7.40
2023-03-24T05:35:31.722Z,7.15
2023-03-24T05:37:59.858Z,7.32
2023-03-24T05:40:28.702Z,7.68
2023-03-24T05:43:12.295Z,7.18
2023-03-24T05:45:45.132Z,7.22
2023-03-24T05:48:23.109Z,7.78
2023-03-24T05:51:10.007Z,6.93
2023-03-24T05:53:38.584Z,7.57
2023-03-24T05:56:19.356Z,7.18
2023-03-24T05:59:05.237Z,7.60
2023-03-24T06:01:53.366Z,7.30
2023-03-24T06:04:29.974Z,7.35
2023-03-24T06:07:05.531Z,6.85
2023-03-24T06:09:40.348Z,7.07
2023-03-24T06:12:10.967Z,6.85
2023-03-24T06:15:04.715Z,7.07
2023-03-24T06:17:34.007Z,7.28
2023-03-24T06:20:15.635Z,6.32
2023-03-24T06:22:47.393Z,6.40
2023-03-24T06:25:21.581Z,6.63
2023-03-24T06:28:04.369Z,6.88
2023-03-24T06:30:34.180Z,7.00
2023-03-24T06:33:03.036Z,6.47
2023-03-24T06:35:31.335Z,6.97
2023-03-24T06:38:14.354Z,6.90
2023-03-24T06:40:43.522Z,6.03
2023-03-24T06:43:11.885Z,7.25
2023-03-24T06:45:42.662Z,6.28
2023-03-24T06:48:15.948Z,5.90
2023-03-24T06:50:46.254Z,6.43
2023-03-24T06:53:21.688Z,5.85
2023-03-24T06:55:50.783Z,6.97
2023-03-24T06:58:21.393Z,6.85
2023-03-24T07:01:02.305Z,6.45
2023-03-24T07:03:35.755Z,6.15
2023-03-24T07:06:24.378Z,5.80
2023-03-24T07:08:57.400Z,5.88
2023-03-24T07:14:02.816Z,5.80
2023-03-24T07:16:32.319Z,5.47
2023-03-24T07:19:29.876Z,5.13
2023-03-24T07:22:16.151Z,5.28
2023-03-24T07:25:09.722Z,5.80
2023-03-24T07:27:48.345Z,5.45
2023-03-24T07:30:24.250Z,5.32
2023-03-24T07:32:57.724Z,5.93
2023-03-24T07:35:25.930Z,5.90
2023-03-24T07:37:54.046Z,5.45
2023-03-24T07:40:23.796Z,4.20
2023-03-24T07:42:52.570Z,4.10
2023-03-24T07:45:36.303Z,4.65
2023-03-24T07:48:05.571Z,4.63
2023-03-24T07:50:37.415Z,4.68
2023-03-24T07:53:19.844Z,4.70
2023-03-24T07:55:49.778Z,4.55
2023-03-24T07:58:23.836Z,5.07
2023-03-24T08:01:15.456Z,5.38
2023-03-24T08:03:49.159Z,4.57
2023-03-24T08:06:17.534Z,5.45
2023-03-24T08:08:52.477Z,5.50
2023-03-24T08:11:22.291Z,4.72
2023-03-24T08:13:50.371Z,6.00
2023-03-24T08:16:18.630Z,5.15
2023-03-24T08:18:48.762Z,4.85
2023-03-24T08:21:17.015Z,9.38
2023-03-24T08:23:45.112Z,6.35
2023-03-24T08:26:13.406Z,7.20
2023-03-24T08:28:43.144Z,6.22
2023-03-24T08:31:11.730Z,5.85
2023-03-24T08:33:40.483Z,6.68
2023-03-24T08:36:09.200Z,6.30
2023-03-24T08:38:38.900Z,6.55
2023-03-24T08:41:08.561Z,6.30
2023-03-24T08:43:38.331Z,5.97
2023-03-24T08:46:13.265Z,6.32
2023-03-24T08:48:44.535Z,7.03
2023-03-24T08:51:14.679Z,6.20
2023-03-24T08:53:43.397Z,6.47
2023-03-24T08:56:11.939Z,6.43
2023-03-24T08:58:40.485Z,6.03
2023-03-24T09:01:13.144Z,5.68
2023-03-24T09:03:41.460Z,5.90
2023-03-24T09:06:10.237Z,6.40
2023-03-24T09:08:41.362Z,5.85
2023-03-24T09:11:16.832Z,5.70
2023-03-24T09:13:47.630Z,5.68
2023-03-24T09:16:18.893Z,6.30
2023-03-24T09:18:49.559Z,6.10
2023-03-24T09:21:18.018Z,5.93
2023-03-24T09:23:46.137Z,5.50
2023-03-24T09:26:16.729Z,5.13
2023-03-24T09:28:44.935Z,5.88
2023-03-24T09:31:13.486Z,5.32
2023-03-24T09:33:43.115Z,5.85
2023-03-24T09:36:11.965Z,5.00
2023-03-24T09:38:40.710Z,5.13
2023-03-24T09:41:18.466Z,5.07
2023-03-24T09:43:50.821Z,5.72
2023-03-24T09:46:29.659Z,5.35
2023-03-24T09:48:59.597Z,5.15
2023-03-24T09:51:29.298Z,4.68
2023-03-24T09:54:07.584Z,5.07
2023-03-24T09:56:39.390Z,5.15
2023-03-24T09:59:13.684Z,4.82
2023-03-24T10:01:41.852Z,4.25
2023-03-24T10:04:17.889Z,4.93
2023-03-24T10:06:48.382Z,5.63
2023-03-24T10:09:25.199Z,4.22
2023-03-24T10:12:05.058Z,4.80
2023-03-24T10:14:45.921Z,4.93
2023-03-24T10:17:22.224Z,4.00
2023-03-24T10:20:00.008Z,3.95
2023-03-24T10:22:37.305Z,3.60
2023-03-24T10:25:14.900Z,3.47
2023-03-24T10:27:47.888Z,3.50
2023-03-24T10:30:18.860Z,3.60
2023-03-24T10:32:47.691Z,3.20
2023-03-24T10:35:21.003Z,3.72
2023-03-24T10:37:50.526Z,3.95
2023-03-24T10:40:20.583Z,4.03
2023-03-24T10:43:07.250Z,4.75
2023-03-24T10:45:40.834Z,4.40
2023-03-24T10:48:09.370Z,4.22
2023-03-24T10:50:43.794Z,4.25
2023-03-24T10:53:19.592Z,4.00
2023-03-24T10:55:50.755Z,3.97
2023-03-24T10:58:26.586Z,4.20
2023-03-24T11:00:55.811Z,4.18
2023-03-24T11:03:29.008Z,3.80
2023-03-24T11:06:03.503Z,3.67
2023-03-24T11:08:36.188Z,4.10
2023-03-24T11:11:15.860Z,3.90
2023-03-24T11:13:55.685Z,3.22
2023-03-24T11:16:29.278Z,3.70
2023-03-24T11:19:01.069Z,3.67
2023-03-24T11:21:32.642Z,3.67
2023-03-24T11:24:02.709Z,3.20
2023-03-24T11:26:33.641Z,2.85
2023-03-24T11:29:04.689Z,3.90
2023-03-24T11:31:38.192Z,3.20
2023-03-24T11:34:10.844Z,3.45
2023-03-24T11:39:20.069Z,3.05
2023-03-24T11:42:05.760Z,3.40
2023-03-24T11:44:47.056Z,3.20
2023-03-24T11:47:24.374Z,2.80
2023-03-24T11:50:01.594Z,3.10
2023-03-24T11:52:36.091Z,3.33
2023-03-24T11:55:06.064Z,3.00
2023-03-24T11:57:48.474Z,3.47
2023-03-24T12:00:23.023Z,2.72
2023-03-24T12:03:16.538Z,2.63
2023-03-24T12:05:52.021Z,3.13
2023-03-24T12:08:33.622Z,2.75
2023-03-24T12:11:19.517Z,3.20
2023-03-24T12:13:51.547Z,3.30
2023-03-24T12:16:41.289Z,3.70
2023-03-24T12:19:27.507Z,3.92
2023-03-24T12:22:05.963Z,3.25
2023-03-24T12:24:54.454Z,3.45
2023-03-24T12:27:29.285Z,3.05
2023-03-24T12:30:02.201Z,3.65
2023-03-24T12:32:43.133Z,3.47
2023-03-24T12:35:41.345Z,3.97
2023-03-24T12:38:37.293Z,2.85
2023-03-24T12:41:25.020Z,3.38
2023-03-24T12:44:17.283Z,2.80
2023-03-24T12:46:54.186Z,2.90
2023-03-24T12:49:40.093Z,2.92
2023-03-24T12:52:21.843Z,4.28
2023-03-24T12:55:04.073Z,3.58
2023-03-24T12:57:38.342Z,4.32
2023-03-24T13:00:12.599Z,3.15
2023-03-24T13:02:46.613Z,3.28
2023-03-24T13:05:21.157Z,3.72
2023-03-24T13:07:54.726Z,3.67
2023-03-24T13:10:26.618Z,3.70
2023-03-24T13:13:02.998Z,4.20
2023-03-24T13:15:35.531Z,4.05
2023-03-24T13:18:19.182Z,4.78
2023-03-24T13:20:52.488Z,5.35
2023-03-24T13:23:33.769Z,4.55
2023-03-24T13:26:16.167Z,4.70
2023-03-24T13:28:56.412Z,4.80
2023-03-24T13:31:26.971Z,4.85
2023-03-24T13:33:57.441Z,5.70
2023-03-24T13:36:40.191Z,6.38
2023-03-24T13:39:14.959Z,6.20
2023-03-24T13:41:51.047Z,6.32
2023-03-24T13:44:23.264Z,6.57
2023-03-24T13:47:12.793Z,6.20
2023-03-24T13:49:47.648Z,6.53
2023-03-24T13:52:27.782Z,6.18
2023-03-24T13:54:59.310Z,5.60
2023-03-24T13:57:27.949Z,4.88
2023-03-24T14:00:11.812Z,5.20
2023-03-24T14:02:49.817Z,4.45
2023-03-24T14:05:58.730Z,4.35
2023-03-24T14:08:45.899Z,5.70
2023-03-24T14:11:43.270Z,6.00
2023-03-24T14:14:19.831Z,4.80
2023-03-24T14:16:53.894Z,4.47
2023-03-24T14:19:27.500Z,4.00
2023-03-24T14:22:05.339Z,4.18
2023-03-24T14:24:34.029Z,4.38
2023-03-24T14:27:02.251Z,3.75
2023-03-24T14:29:43.201Z,3.90
2023-03-24T14:32:20.713Z,4.47
2023-03-24T14:34:55.810Z,4.53
2023-03-24T14:37:24.971Z,5.25
2023-03-24T14:39:57.284Z,4.80
2023-03-24T14:42:50.887Z,3.42
2023-03-24T14:45:58.876Z,3.65
2023-03-24T14:48:34.952Z,3.35
2023-03-24T14:51:13.811Z,3.95
2023-03-24T14:53:42.530Z,4.80
2023-03-24T14:56:15.393Z,5.18
2023-03-24T15:01:13.553Z,4.47
2023-03-24T15:03:53.323Z,4.32
2023-03-24T15:06:23.684Z,3.92
2023-03-24T15:08:53.251Z,3.75
2023-03-24T15:11:26.187Z,4.60
2023-03-24T15:13:55.586Z,3.78
2023-03-24T15:16:25.645Z,3.08
2023-03-24T15:19:01.913Z,4.00
2023-03-24T15:21:34.386Z,3.30
2023-03-24T15:24:03.536Z,3.90
2023-03-24T15:26:33.088Z,3.40
2023-03-24T15:29:03.924Z,3.78
2023-03-24T15:31:33.002Z,3.40
2023-03-24T15:34:07.591Z,3.50
2023-03-24T15:36:46.439Z,2.65
2023-03-24T15:39:19.826Z,3.47
2023-03-24T15:41:52.281Z,4.22
2023-03-24T15:44:22.347Z,3.20
2023-03-24T15:46:51.194Z,3.10
2023-03-24T15:49:25.447Z,3.70
2023-03-24T15:51:58.754Z,2.25
2023-03-24T15:54:32.076Z,2.67
2023-03-24T15:57:14.489Z,2.35
2023-03-24T15:59:46.967Z,3.03
2023-03-24T16:02:34.359Z,2.78
2023-03-24T16:05:11.235Z,2.60
2023-03-24T16:07:42.661Z,2.22
2023-03-24T16:10:39.923Z,2.80
2023-03-24T16:13:15.776Z,3.00
2023-03-24T16:15:46.216Z,3.00
2023-03-24T16:18:18.381Z,3.10
2023-03-24T16:20:51.800Z,3.60
2023-03-24T16:23:20.279Z,2.72
2023-03-24T16:25:48.776Z,2.95
2023-03-24T16:28:20.695Z,2.65
2023-03-24T16:30:58.050Z,2.75
2023-03-24T16:33:27.240Z,3.30
2023-03-24T16:35:57.138Z,3.33
2023-03-24T16:38:25.443Z,5.28
2023-03-24T16:40:55.382Z,6.10
2023-03-24T16:43:24.000Z,2.95
2023-03-24T16:45:52.571Z,4.03
2023-03-24T16:48:20.904Z,3.83
2023-03-24T16:50:53.272Z,3.40
2023-03-24T16:53:22.980Z,4.15
2023-03-24T16:55:51.553Z,4.22
2023-03-24T16:58:20.131Z,5.70
2023-03-24T17:00:49.991Z,5.63
2023-03-24T17:03:18.987Z,5.95
2023-03-24T17:05:51.063Z,4.90
2023-03-24T17:08:20.113Z,5.00
2023-03-24T17:10:52.991Z,6.38
2023-03-24T17:13:22.625Z,5.35
2023-03-24T17:15:51.351Z,4.65
2023-03-24T17:18:20.595Z,4.57
2023-03-24T17:20:48.969Z,4.30
2023-03-24T17:23:18.975Z,4.78
2023-03-24T17:25:48.974Z,4.28
2023-03-24T17:28:18.635Z,5.15
2023-03-24T17:30:47.241Z,4.30
2023-03-24T17:33:16.371Z,3.90
2023-03-24T17:35:46.523Z,4.10
2023-03-24T17:38:16.567Z,4.30
2023-03-24T17:40:46.544Z,4.80
2023-03-24T17:43:16.403Z,4.80
2023-03-24T17:45:44.712Z,5.28
2023-03-24T17:48:13.128Z,5.63
2023-03-24T17:50:43.639Z,7.63
2023-03-24T17:53:15.904Z,6.82
2023-03-24T17:55:44.107Z,7.25
2023-03-24T17:58:12.391Z,7.25
2023-03-24T18:00:42.105Z,8.23
2023-03-24T18:03:11.162Z,9.25
2023-03-24T18:05:40.004Z,11.05
2023-03-24T18:08:08.343Z,12.05
2023-03-24T18:10:39.542Z,13.43
2023-03-24T18:13:08.544Z,11.13
2023-03-24T18:15:37.076Z,12.48
2023-03-24T18:18:06.849Z,13.65
2023-03-24T18:20:36.352Z,14.93
2023-03-24T18:23:04.749Z,12.07
2023-03-24T18:25:33.671Z,12.85
2023-03-24T18:28:01.849Z,13.23
2023-03-24T18:30:30.842Z,11.35
2023-03-24T18:33:01.284Z,10.68
2023-03-24T18:35:31.007Z,10.23
2023-03-24T18:37:59.269Z,10.05
2023-03-24T18:40:27.677Z,14.70
2023-03-24T18:42:55.828Z,12.75
2023-03-24T18:45:24.043Z,11.07
2023-03-24T18:47:52.258Z,11.93
2023-03-24T18:50:20.525Z,13.25
2023-03-24T18:52:50.316Z,11.50
2023-03-24T18:55:21.877Z,9.57
2023-03-24T18:57:50.630Z,11.88
2023-03-24T19:00:20.225Z,10.25
2023-03-24T19:02:48.522Z,9.00
2023-03-24T19:05:17.107Z,9.10
2023-03-24T19:07:48.429Z,9.27
2023-03-24T19:10:18.276Z,10.70
2023-03-24T19:12:46.519Z,11.32
2023-03-24T19:15:14.801Z,9.27
2023-03-24T19:17:43.001Z,9.52
2023-03-24T19:20:12.133Z,9.35
2023-03-24T19:22:41.605Z,9.57
2023-03-24T19:25:09.959Z,9.40
2023-03-24T19:27:39.543Z,9.07
2023-03-24T19:30:11.241Z,10.77
2023-03-24T19:32:39.718Z,10.32
2023-03-24T19:35:11.001Z,8.20
2023-03-24T19:37:39.285Z,9.43
2023-03-24T19:40:11.595Z,8.85
2023-03-24T19:42:41.887Z,8.77
2023-03-24T19:45:11.540Z,9.70
2023-03-24T19:47:43.324Z,7.72
2023-03-24T19:50:13.063Z,7.03
2023-03-24T19:52:43.024Z,7.85
2023-03-24T19:55:12.233Z,8.15
2023-03-24T19:57:42.028Z,9.18
2023-03-24T20:00:13.900Z,9.25
2023-03-24T20:02:43.014Z,10.37
2023-03-24T20:05:11.700Z,9.93
2023-03-24T20:07:40.111Z,9.38
2023-03-24T20:10:09.762Z,7.88
2023-03-24T20:12:37.951Z,6.85
2023-03-24T20:15:08.831Z,6.60
2023-03-24T20:17:39.416Z,7.10
2023-03-24T20:20:10.300Z,6.80
2023-03-24T20:22:42.037Z,5.97
2023-03-24T20:25:11.481Z,5.28
2023-03-24T20:27:39.893Z,4.60
2023-03-24T20:30:10.525Z,4.22
2023-03-24T20:32:38.896Z,3.53
2023-03-24T20:35:07.753Z,4.07
2023-03-24T20:37:36.449Z,3.70
2023-03-24T20:40:05.861Z,3.97
2023-03-24T20:42:34.945Z,5.40
2023-03-24T20:45:06.720Z,6.15
2023-03-24T20:47:39.034Z,4.55
2023-03-24T20:50:08.623Z,4.25
2023-03-24T20:52:38.939Z,4.05
2023-03-24T20:55:08.764Z,4.10
2023-03-24T20:57:37.368Z,3.53
2023-03-24T21:00:13.443Z,4.43
2023-03-24T21:02:44.042Z,3.72
2023-03-24T21:05:12.461Z,3.47
2023-03-24T21:07:43.682Z,3.78
2023-03-24T21:10:12.681Z,4.15
2023-03-24T21:12:52.787Z,3.90
2023-03-24T21:15:24.910Z,3.70
2023-03-24T21:17:55.334Z,3.92
2023-03-24T21:20:26.852Z,4.03
2023-03-24T21:22:55.739Z,4.68
2023-03-24T21:25:25.654Z,4.43
2023-03-24T21:27:54.393Z,4.00
2023-03-24T21:30:23.885Z,4.30
2023-03-24T21:32:55.937Z,4.40
2023-03-24T21:35:24.963Z,4.10
2023-03-24T21:37:53.945Z,4.25
2023-03-24T21:40:24.167Z,4.45
2023-03-24T21:42:53.676Z,5.32
2023-03-24T21:45:24.159Z,4.63
2023-03-24T21:47:55.376Z,5.28
2023-03-24T21:50:24.095Z,5.13
2023-03-24T21:52:53.784Z,5.18
2023-03-24T21:55:25.294Z,5.15
2023-03-24T21:57:53.878Z,4.88
2023-03-24T22:00:24.255Z,4.88
2023-03-24T22:02:58.346Z,4.78
2023-03-24T22:05:27.786Z,5.97
2023-03-24T22:07:56.179Z,6.15
2023-03-24T22:10:24.428Z,6.00
2023-03-24T22:12:54.274Z,5.72
2023-03-24T22:15:23.996Z,5.40
2023-03-24T22:17:52.324Z,6.03
2023-03-24T22:20:22.336Z,5.97
2023-03-24T22:22:50.863Z,5.75
2023-03-24T22:25:20.136Z,6.03
2023-03-24T22:27:51.342Z,6.78
2023-03-24T22:30:21.153Z,7.05
2023-03-24T22:32:49.687Z,6.22
2023-03-24T22:35:18.152Z,6.50
2023-03-24T22:37:47.934Z,6.25
2023-03-24T22:40:16.091Z,7.03
2023-03-24T22:42:44.288Z,6.78
2023-03-24T22:45:15.877Z,7.32
2023-03-24T22:47:44.440Z,6.78
2023-03-24T22:50:12.976Z,7.85
2023-03-24T22:52:41.349Z,7.18
2023-03-24T22:55:11.972Z,6.80
2023-03-24T22:57:47.761Z,6.65
2023-03-24T23:00:19.305Z,6.63
2023-03-24T23:02:47.654Z,6.78
2023-03-24T23:05:16.425Z,6.18
2023-03-24T23:07:45.043Z,6.68
2023-03-24T23:10:14.943Z,5.68
2023-03-24T23:12:43.930Z,5.93
2023-03-24T23:15:17.721Z,6.53
2023-03-24T23:17:46.560Z,5.35
2023-03-24T23:20:19.551Z,5.72
2023-03-24T23:22:47.897Z,5.65
2023-03-24T23:25:19.149Z,4.65
2023-03-24T23:27:47.941Z,4.93
2023-03-24T23:30:17.294Z,4.93
2023-03-24T23:32:46.717Z,5.95
2023-03-24T23:35:16.942Z,4.65
2023-03-24T23:37:45.112Z,4.43
2023-03-24T23:40:15.973Z,5.20
2023-03-24T23:42:47.614Z,4.75
2023-03-24T23:45:18.481Z,6.28
2023-03-24T23:47:49.916Z,5.28
2023-03-24T23:50:22.007Z,5.95
2023-03-24T23:52:50.307Z,4.15
2023-03-24T23:55:25.780Z,3.90
2023-03-24T23:57:56.796Z,4.45
